• Join FlightAware (Why Join?)
  • Login
  • US Flag 
05:04AM EST


 

Airport Tracker/Info


-or-


 

Live Flight TrackerFlight Track Log ✈ N72108 ✈ 11-May-2012 ✈ KBPK - KELD

Flight Track Log - Related Links

Times and Time Zones

All times are in EDT time to prevent confusion due to time zone crossing. See the N72108 flight status page for this flight to view local times or setup timezone preferences in your user account.

Time Position Orientation Groundspeed Altitude Reporting Facility
EDT Latitude Longitude Course Direction KTS MPH feet Rate Location/Type
02:46PM 36.1592 -92.5008 182° South 162 186 5,300  Level Memphis Center
02:47PM 36.1256 -92.5025 182° South 143 165 5,800 480 Climbing Memphis Center
02:48PM 36.0881 -92.5042 182° South 138 159 6,300 480 Climbing Memphis Center
02:49PM 36.0525 -92.5058 186° South 138 159 6,800 480 Climbing Memphis Center
02:50PM 36.0192 -92.5100 186° South 133 153 7,300 540 Climbing Memphis Center
02:51PM 35.9836 -92.5144 189° South 133 153 7,900 300 Climbing Memphis Center
02:52PM 35.9481 -92.5211 182° South 128 147 8,000  Climbing Memphis Center
02:53PM 35.9083 -92.5225 185° South 133 153 7,900 -60 Descending Memphis Center
02:54PM 35.8689 -92.5267 188° South 144 166 7,900  Level Memphis Center
02:55PM 35.8289 -92.5333 187° South 144 166 7,900  Level Memphis Center
02:56PM 35.7872 -92.5400 188° South 144 166 7,900  Level Memphis Center
02:57PM 35.7475 -92.5467 187° South 144 166 7,900  Level Memphis Center
02:58PM 35.7056 -92.5531 188° South 144 166 7,900  Level Memphis Center
02:59PM 35.6658 -92.5597 187° South 144 166 7,900  Level Memphis Center
03:00PM 35.6242 -92.5664 186° South 144 166 7,900  Level Memphis Center
03:01PM 35.5928 -92.5706 187° South 144 166 7,900  Level Memphis Center
03:02PM 35.5508 -92.5772 184° South 144 166 7,900  Level Memphis Center
03:03PM 35.5092 -92.5811 182° South 144 166 7,900  Level Memphis Center
03:04PM 35.4694 -92.5825 189° South 144 166 7,900  Level Memphis Center
03:05PM 35.4339 -92.5892 184° South 146 168 7,900  Level Memphis Center
03:06PM 35.3900 -92.5933 181° South 147 169 7,900  Level Memphis Center
03:07PM 35.3461 -92.5944 185° South 145 167 7,900  Level Memphis Center
03:08PM 35.3064 -92.5986 185° South 142 163 7,900 -60 Level Memphis Center
03:09PM 35.2667 -92.6025 182° South 142 163 7,800  Descending Memphis Center
03:10PM 35.2314 -92.6042 187° South 144 166 7,900  Climbing Memphis Center
03:11PM 35.1894 -92.6108 185° South 144 166 7,900  Level Memphis Center
03:12PM 35.1497 -92.6147 181° South 147 169 7,900  Level Memphis Center
03:13PM 35.1058 -92.6161 187° South 144 166 7,900 -60 Level Memphis Center
03:14PM 35.0619 -92.6225 182° South 149 171 7,800  Descending Memphis Center
03:15PM 35.0203 -92.6239 179° South 145 167 7,900  Climbing Memphis Center
03:16PM 34.9847 -92.6231 182° South 149 171 7,900  Level Memphis Center
03:17PM 34.9431 -92.6244 184° South 149 171 7,900  Level Memphis Center
03:18PM 34.8950 -92.6281 181° South 147 169 7,900  Level Memphis Center
03:19PM 34.8511 -92.6294 189° South 147 169 7,900  Level Memphis Center
03:20PM 34.8156 -92.6361 182° South 145 167 7,900 -60 Level Memphis Center
03:21PM 34.7739 -92.6375 187° South 144 166 7,800  Descending Memphis Center
03:22PM 34.7319 -92.6442 184° South 142 163 7,900  Climbing Memphis Center
03:23PM 34.6900 -92.6481 185° South 142 163 7,900 -60 Level Memphis Center
03:24PM 34.6525 -92.6519 190° South 141 162 7,800  Descending Memphis Center
03:25PM 34.6106 -92.6608 184° South 142 163 7,900  Climbing Memphis Center
03:26PM 34.5583 -92.6647 185° South 146 168 7,900  Level Memphis Center
03:27PM 34.5208 -92.6686 185° South 146 168 7,900  Level Memphis Center
03:28PM 34.4811 -92.6725 188° South 141 162 7,900  Level Memphis Center
03:29PM 34.4414 -92.6792 188° South 141 162 7,900  Level Memphis Center
03:30PM 34.4036 -92.6856 182° South 141 162 7,900  Level Memphis Center
03:31PM 34.3639 -92.6872 191° South 141 162 7,900  Level Memphis Center
03:32PM 34.3261 -92.6961 182° South 141 162 7,900  Level Memphis Center
03:33PM 34.2886 -92.6975 182° South 141 162 7,900  Level Memphis Center
03:34PM 34.2489 -92.6992 182° South 141 162 7,900  Level Memphis Center
03:35PM 34.2114 -92.7006 179° South 141 162 7,900  Level Memphis Center
03:36PM 34.1717 -92.6994 186° South 141 162 7,900  Level Memphis Center
03:37PM 34.1361 -92.7036 182° South 141 162 7,900  Level Memphis Center
03:38PM 34.0964 -92.7050 185° South 141 162 7,900  Level Memphis Center
03:39PM 34.0567 -92.7089 185° South 141 162 7,900  Level Memphis Center
03:40PM 34.0169 -92.7128 186° South 141 162 7,900  Level Memphis Center
03:42PM 33.9481 -92.7217 186° South 136 157 7,900  Level Fort Worth Center
03:43PM 33.9106 -92.7261 186° South 142 163 7,900  Level Fort Worth Center
03:44PM 33.8711 -92.7308 179° South 142 163 7,900  Level Fort Worth Center
03:45PM 33.8314 -92.7303 186° South 142 163 7,900  Level Fort Worth Center
03:46PM 33.7919 -92.7350 182° South 142 163 7,900  Level Fort Worth Center
03:47PM 33.7544 -92.7369 185° South 142 163 7,900 -60 Level Fort Worth Center
03:48PM 33.7128 -92.7417 185° South 142 163 7,800 -360 Descending Fort Worth Center
03:49PM 33.6714 -92.7464 183° South 142 163 7,200 -720 Descending Fort Worth Center
03:50PM 33.6297 -92.7486 185° South 154 177 6,400 -780 Descending Fort Worth Center
03:51PM 33.5861 -92.7533 188° South 154 177 5,700 -720 Descending Fort Worth Center
03:52PM 33.5425 -92.7606 188° South 159 183 5,000 -780 Descending Fort Worth Center
03:53PM 33.5011 -92.7678 191° South 159 183 4,200 -780 Descending Fort Worth Center
03:54PM 33.4597 -92.7775 188° South 159 183 3,500 -780 Descending Fort Worth Center
03:55PM 33.4203 -92.7844 183° South 159 183 2,700 -720 Descending Fort Worth Center
03:56PM 33.3808 -92.7867 192° South 154 177 2,100 -480 Descending Fort Worth Center
03:57PM 33.3436 -92.7961 179° South 148 170 1,800 -360 Descending Fort Worth Center
03:58PM 33.3081 -92.7956 182° South 140 161 1,400 -300 Descending Fort Worth Center
03:59PM 33.2747 -92.7972 182° South 140 161 1,200 1,260 Descending Fort Worth Center
04:00PM 33.2372 -92.7992 183° South 140 161 4,000 1,380 Climbing Fort Worth Center
04:01PM 33.1956 -92.8014 183° South 140 161 4,000  Level Fort Worth Center